Salina, KS (67401)

7:11 PM CDT en Agosto 29, 2014 (GMT -0500)
Peters Science Hall | Change Station
CLOSE
Current Station
Estación meteorológica personal
Location: Salina, KS
Altura: 1225 ft
Estaciones meteorológicas cercanas

Alt 1225 ft 38.81 °N, 97.61 °W | Updated 0 second ago

Partly Cloudy
Parcialmente nublado
85.9 ° F
Sensación térmica 85 ° F
N
5.0
Viento Variable Viento desde OSO
Gusts 10.0 mph

Hoy
Alta -- | Baja -- ° F
--% Posibilidad de precipitaciones
Ayer
Alta -- | Baja -- ° F
Precip. -- pul
6:56 AM 8:05 PM
Creciente, 17% visible
Presión 29.78 pul
Visibilidad 10.0 Millas
Nubes Baja 6000 ft
Índice de calor 85 ° F
Punto de rocío 56 ° F
Humedad 36%
Precipitaciones 0.00 pul
Espesor de la nieve No disponible.
UV 0.6 de una escala de 12
Polen 6.70 de una escala de 12
Calidad del aire No disponible.
Flu Activity No disponible.
METAR KSLN 292253Z 25010KT 10SM FEW060 31/14 A2982 RMK AO2 SLP082 T03110139

More Conditions Fewer Conditions

Presión 29.78 pul
Visibilidad 10.0 Millas
Nubes Baja 6000 ft
Índice de calor 85 ° F
Punto de rocío 56 ° F
Humedad 36%
Precipitaciones 0.00 pul
Espesor de la nieve No disponible.
UV 0.6 de una escala de 12
Polen 6.70 de una escala de 12
Calidad del aire No disponible.
Flu Activity No disponible.
METAR KSLN 292253Z 25010KT 10SM FEW060 31/14 A2982 RMK AO2 SLP082 T03110139

More Conditions Fewer Conditions

10-Day Weather Forecast

Almanac

Astronomía

Aug. 29, 2014 Salida Puesta
Hora real 6:56 AM CDT 8:05 PM CDT
Crepúsculo civil 6:29 AM CDT 8:32 PM CDT
Crepúsculo náutico 5:56 AM CDT 9:05 PM CDT
Crepúsculo astronómico 5:22 AM CDT 9:39 PM CDT
Luna 10:45 AM CDT (8/29) 10:06 PM CDT (8/29)
Horas de luz 14h 03m
Horas de luz
13h 08m
Tomorrow will be 2m 23s shorter.
Creciente, 17% of the Moon is Illuminated
Hoy
Creciente
Sep 2
Cuarto creciente
Sep 8
Luna llena
Sep 15
Cuarto menguante
Sep 24
Nueva

Extremos de hoy

Máximos del estado Bajos del estado

Community

WunderPhotos

Upload Photos

1,748,382 ¡fotos cargadas!

Nearby

Grosos de nieve

Estación Profundido Altura
No tenemos constancia de nieve nueva.

Actividad de terremotos

Ciudad Distance Mag. Tiempo y dato
Anthony, Kansas 125 Millas 2.8 10:11 AM CDT
2014-08-27
Magnitud mínima muestra es 2,5.

Temperaturas de aguas costeras

Lugar Temperatura
Sin partes meteorológicos de las estaciones

Estaciones meteorológicas cercanas